createdAt,value
2023-04-06T00:00:13.802Z,5.13
2023-04-06T00:05:08.799Z,5.16
2023-04-06T00:10:00.342Z,5.16
2023-04-06T00:14:51.685Z,5.18
2023-04-06T00:19:47.458Z,5.22
2023-04-06T00:24:40.422Z,4.96
2023-04-06T00:29:34.242Z,5.20
2023-04-06T00:34:32.366Z,5.16
2023-04-06T00:39:26.142Z,5.30
2023-04-06T00:44:22.526Z,5.37
2023-04-06T00:49:14.706Z,5.35
2023-04-06T00:54:06.728Z,5.34
2023-04-06T00:59:02.200Z,5.22
2023-04-06T01:03:56.103Z,5.20
2023-04-06T01:08:47.830Z,5.26
2023-04-06T01:13:45.468Z,5.24
2023-04-06T01:18:48.280Z,5.17
2023-04-06T01:23:53.341Z,5.10
2023-04-06T01:28:54.273Z,5.11
2023-04-06T01:33:50.900Z,5.03
2023-04-06T01:38:51.117Z,5.02
2023-04-06T01:43:49.443Z,4.97
2023-04-06T01:48:41.134Z,4.93
2023-04-06T01:53:45.434Z,4.92
2023-04-06T01:58:38.278Z,4.88
2023-04-06T02:03:32.230Z,4.88
2023-04-06T02:08:30.998Z,4.83
2023-04-06T02:13:24.333Z,4.87
2023-04-06T02:18:19.569Z,4.86
2023-04-06T02:23:14.872Z,4.85
2023-04-06T02:28:06.143Z,4.84
2023-04-06T02:32:59.539Z,4.91
2023-04-06T02:37:51.174Z,4.88
2023-04-06T02:42:45.308Z,4.87
2023-04-06T02:47:39.854Z,4.87
2023-04-06T02:52:33.920Z,4.91
2023-04-06T02:57:28.115Z,4.91
2023-04-06T03:02:25.692Z,4.85
2023-04-06T03:07:21.807Z,4.92
2023-04-06T03:12:12.869Z,4.88
2023-04-06T03:17:25.059Z,4.71
2023-04-06T03:22:18.432Z,4.81
2023-04-06T03:27:20.190Z,4.81
2023-04-06T03:32:14.774Z,4.76
2023-04-06T03:37:10.778Z,4.67
2023-04-06T03:42:10.489Z,4.63
2023-04-06T03:47:10.612Z,4.55
2023-04-06T03:52:01.186Z,4.51
2023-04-06T03:56:57.034Z,4.55
2023-04-06T04:01:53.729Z,4.51
2023-04-06T04:06:53.397Z,4.51
2023-04-06T04:11:44.635Z,4.54
2023-04-06T04:16:40.648Z,4.50
2023-04-06T04:21:34.687Z,4.56
2023-04-06T04:26:32.733Z,4.52
2023-04-06T04:31:25.897Z,4.57
2023-04-06T04:36:25.017Z,4.59
2023-04-06T04:41:18.418Z,4.57
2023-04-06T04:46:11.757Z,4.56
2023-04-06T04:51:06.741Z,4.52
2023-04-06T04:56:15.131Z,4.49
2023-04-06T05:01:09.690Z,4.51
2023-04-06T05:06:01.928Z,4.52
2023-04-06T05:10:57.695Z,4.56
2023-04-06T05:15:53.169Z,4.54
2023-04-06T05:20:55.606Z,4.58
2023-04-06T05:25:56.430Z,4.57
2023-04-06T05:30:49.418Z,4.49
2023-04-06T05:35:44.035Z,4.46
2023-04-06T05:40:42.672Z,4.46
2023-04-06T05:45:39.430Z,4.52
2023-04-06T05:50:31.896Z,4.46
2023-04-06T05:55:29.366Z,4.49
2023-04-06T06:00:35.935Z,4.49
2023-04-06T06:05:32.313Z,4.44
2023-04-06T06:10:33.295Z,4.55
2023-04-06T06:15:27.547Z,4.47
2023-04-06T06:20:19.089Z,4.49
2023-04-06T06:25:14.597Z,4.54
2023-04-06T06:30:11.477Z,4.55
2023-04-06T06:35:06.187Z,4.59
2023-04-06T06:39:59.015Z,4.68
2023-04-06T06:44:51.760Z,4.71
2023-04-06T06:49:45.460Z,4.73
2023-04-06T06:54:36.663Z,4.83
2023-04-06T06:59:27.982Z,4.95
2023-04-06T07:04:19.836Z,5.11
2023-04-06T07:09:16.151Z,5.16
2023-04-06T07:14:08.657Z,5.29
2023-04-06T07:19:03.128Z,5.37
2023-04-06T07:23:56.968Z,5.48
2023-04-06T07:28:50.858Z,5.63
2023-04-06T07:33:52.258Z,5.71
2023-04-06T07:38:44.092Z,5.84
2023-04-06T07:43:46.477Z,5.87
2023-04-06T07:48:42.430Z,5.93
2023-04-06T07:53:42.990Z,6.00
2023-04-06T07:58:37.458Z,6.17
2023-04-06T08:03:29.356Z,6.26
2023-04-06T08:08:24.494Z,6.35
2023-04-06T08:13:14.626Z,6.36
2023-04-06T08:18:04.571Z,6.52
2023-04-06T08:22:56.081Z,6.73
2023-04-06T08:27:50.168Z,7.10
2023-04-06T08:32:43.106Z,7.26
2023-04-06T08:37:37.859Z,7.31
2023-04-06T08:42:31.900Z,7.35
2023-04-06T08:47:25.109Z,7.40
2023-04-06T08:52:17.015Z,7.47
2023-04-06T08:57:16.317Z,7.46
2023-04-06T09:02:23.596Z,7.56
2023-04-06T09:07:18.124Z,7.56
2023-04-06T09:12:22.036Z,7.47
2023-04-06T09:17:13.283Z,7.48
2023-04-06T09:22:12.259Z,7.37
2023-04-06T09:27:06.643Z,7.34
2023-04-06T09:32:12.084Z,7.30
2023-04-06T09:37:07.927Z,7.29
2023-04-06T09:42:09.846Z,7.20
2023-04-06T09:47:13.488Z,7.10
2023-04-06T09:52:11.270Z,7.16
2023-04-06T09:57:16.001Z,7.20
2023-04-06T10:02:13.167Z,6.99
2023-04-06T10:07:07.284Z,6.97
2023-04-06T10:12:03.175Z,6.95
2023-04-06T10:17:10.047Z,6.95
2023-04-06T10:22:11.039Z,6.86
2023-04-06T10:27:10.339Z,6.69
2023-04-06T10:32:08.264Z,6.81
2023-04-06T10:37:01.049Z,6.69
2023-04-06T10:41:55.553Z,6.72
2023-04-06T10:46:57.490Z,6.98
2023-04-06T10:51:49.409Z,6.99
2023-04-06T10:56:43.926Z,6.90
2023-04-06T11:01:39.047Z,6.84
2023-04-06T11:06:34.845Z,7.07
2023-04-06T11:11:29.637Z,7.14
2023-04-06T11:16:27.087Z,7.04
2023-04-06T11:21:21.489Z,7.17
2023-04-06T11:26:16.402Z,7.01
2023-04-06T11:31:16.762Z,7.13
2023-04-06T11:36:08.161Z,7.04
2023-04-06T11:41:07.759Z,7.09
2023-04-06T11:46:09.022Z,7.11
2023-04-06T11:51:06.563Z,7.11
2023-04-06T11:56:03.089Z,7.09
2023-04-06T12:01:07.182Z,7.03
2023-04-06T12:06:00.283Z,6.83
2023-04-06T12:10:50.627Z,7.13
2023-04-06T12:15:51.193Z,7.12
2023-04-06T12:20:48.590Z,6.55
2023-04-06T12:25:42.231Z,6.51
2023-04-06T12:30:33.633Z,6.44
2023-04-06T12:35:26.472Z,6.39
2023-04-06T12:40:19.842Z,6.63
2023-04-06T12:45:14.128Z,6.65
2023-04-06T12:50:07.413Z,6.60
2023-04-06T12:54:59.002Z,6.55
2023-04-06T12:59:54.314Z,6.56
2023-04-06T13:04:47.186Z,6.53
2023-04-06T13:09:51.322Z,6.48
2023-04-06T13:14:43.665Z,6.44
2023-04-06T13:19:42.872Z,6.90
2023-04-06T13:24:37.777Z,6.94
2023-04-06T13:29:36.042Z,6.73
2023-04-06T13:34:29.724Z,6.84
2023-04-06T13:39:23.792Z,6.94
2023-04-06T13:44:19.723Z,6.95
2023-04-06T13:49:11.070Z,6.91
2023-04-06T13:54:04.203Z,6.88
2023-04-06T13:58:57.860Z,6.88
2023-04-06T14:03:52.291Z,6.95
2023-04-06T14:08:43.241Z,7.07
2023-04-06T14:13:35.806Z,7.17
2023-04-06T14:18:35.500Z,7.20
2023-04-06T14:23:27.197Z,7.21
2023-04-06T14:28:20.438Z,7.20
2023-04-06T14:33:13.698Z,6.97
2023-04-06T14:38:07.000Z,7.11
2023-04-06T14:43:03.552Z,7.10
2023-04-06T14:47:54.307Z,7.07
2023-04-06T14:52:44.530Z,7.04
2023-04-06T14:57:41.353Z,7.07
2023-04-06T15:02:40.835Z,7.08
2023-04-06T15:07:33.563Z,7.24
2023-04-06T15:12:24.292Z,7.16
2023-04-06T15:17:18.172Z,7.10
2023-04-06T15:22:12.748Z,7.15
2023-04-06T15:27:03.786Z,7.23
2023-04-06T15:31:54.119Z,7.19
2023-04-06T15:36:48.462Z,7.20
2023-04-06T15:41:40.857Z,7.28
2023-04-06T15:46:37.282Z,7.26
2023-04-06T15:51:28.930Z,7.27
2023-04-06T15:56:22.792Z,7.20
2023-04-06T16:01:18.738Z,7.24
2023-04-06T16:06:10.466Z,7.29
2023-04-06T16:11:03.821Z,7.21
2023-04-06T16:15:57.419Z,7.21
2023-04-06T16:20:52.980Z,7.35
2023-04-06T16:25:46.207Z,7.23
2023-04-06T16:30:41.102Z,7.34
2023-04-06T16:35:36.813Z,7.39
2023-04-06T16:40:34.373Z,7.39
2023-04-06T16:45:34.644Z,7.39
2023-04-06T16:50:35.719Z,7.52
2023-04-06T16:55:46.628Z,7.51
2023-04-06T17:00:41.194Z,7.49
2023-04-06T17:05:44.628Z,7.55
2023-04-06T17:10:41.913Z,7.50
2023-04-06T17:15:49.300Z,7.57
2023-04-06T17:20:43.089Z,7.60
2023-04-06T17:25:34.527Z,7.50
2023-04-06T17:30:28.758Z,7.54
2023-04-06T17:35:20.713Z,7.51
2023-04-06T17:40:15.265Z,7.55
2023-04-06T17:45:11.119Z,7.56
2023-04-06T17:50:11.206Z,7.58
2023-04-06T17:55:02.175Z,7.68
2023-04-06T17:59:54.901Z,7.70
2023-04-06T18:04:47.851Z,7.71
2023-04-06T18:09:41.493Z,7.78
2023-04-06T18:14:34.408Z,7.90
2023-04-06T18:19:24.948Z,7.83
2023-04-06T18:24:27.244Z,7.95
2023-04-06T18:29:51.239Z,8.06
2023-04-06T18:34:40.589Z,7.91
2023-04-06T18:39:33.872Z,7.88
2023-04-06T18:44:32.334Z,7.97
2023-04-06T18:49:25.167Z,7.93
2023-04-06T18:54:17.450Z,7.95
2023-04-06T18:59:09.384Z,8.04
2023-04-06T19:04:06.849Z,7.98
2023-04-06T19:08:59.601Z,8.00
2023-04-06T19:13:53.319Z,8.06
2023-04-06T19:18:46.437Z,8.06
2023-04-06T19:23:42.547Z,8.12
2023-04-06T19:28:35.072Z,8.18
2023-04-06T19:33:27.148Z,7.98
2023-04-06T19:38:18.963Z,8.05
2023-04-06T19:43:12.316Z,7.90
2023-04-06T19:48:03.672Z,7.26
2023-04-06T19:52:55.994Z,7.18
2023-04-06T19:57:50.261Z,7.33
2023-04-06T20:02:45.659Z,7.31
2023-04-06T20:07:38.994Z,8.13
2023-04-06T20:12:32.584Z,8.24
2023-04-06T20:17:25.171Z,8.31
2023-04-06T20:22:19.486Z,8.07
2023-04-06T20:27:10.535Z,8.06
2023-04-06T20:32:11.843Z,8.05
2023-04-06T20:37:35.672Z,8.06
2023-04-06T20:42:27.012Z,8.00
2023-04-06T20:47:17.891Z,7.23
2023-04-06T20:52:11.711Z,7.16
2023-04-06T20:57:05.994Z,7.14
2023-04-06T21:01:57.427Z,7.08
2023-04-06T21:06:52.076Z,7.15
2023-04-06T21:11:46.618Z,7.12
2023-04-06T21:16:42.480Z,7.01
2023-04-06T21:21:35.094Z,6.99
2023-04-06T21:26:32.291Z,6.93
2023-04-06T21:31:24.231Z,6.81
2023-04-06T21:36:21.830Z,6.77
2023-04-06T21:41:14.127Z,6.95
2023-04-06T21:46:07.143Z,6.89
2023-04-06T21:50:59.394Z,6.87
2023-04-06T21:55:55.272Z,6.84
2023-04-06T22:00:47.978Z,6.75
2023-04-06T22:05:41.789Z,6.66
2023-04-06T22:10:35.667Z,6.63
2023-04-06T22:15:30.528Z,6.74
2023-04-06T22:20:22.833Z,6.64
2023-04-06T22:25:14.686Z,6.69
2023-04-06T22:30:07.735Z,6.73
2023-04-06T22:35:05.030Z,6.64
2023-04-06T22:39:56.678Z,6.60
2023-04-06T22:44:47.821Z,6.56
2023-04-06T22:49:38.807Z,6.58
2023-04-06T22:54:37.609Z,6.50
2023-04-06T22:59:28.578Z,6.58
2023-04-06T23:04:22.018Z,6.60
2023-04-06T23:09:13.308Z,6.55
2023-04-06T23:14:09.066Z,6.50
2023-04-06T23:19:02.071Z,6.47
2023-04-06T23:23:53.302Z,6.50
2023-04-06T23:28:44.709Z,6.48
2023-04-06T23:33:40.386Z,6.47
2023-04-06T23:38:32.476Z,6.48
2023-04-06T23:43:24.492Z,6.51
2023-04-06T23:48:16.328Z,6.43
2023-04-06T23:53:14.492Z,6.43
2023-04-06T23:58:06.288Z,6.35
